Airfield :
LOGIN :

Register | Disclaimer

   EN    FR    IT 

 










Legend :    VFR   Marginal VFR   IFR   Intensive IFR   Very Intensive IFR
Visi :
Ceiling :
>= 8 km
>= 3000ft
5 to 8 km
1000 to 3000 ft
1500m to 5 km
500 to 1000 ft
800 to 1500m
200 to 500 ft
< 800m
< 200 ft
Symbols :   Thunderstorms  Fog  Heavy snow  Heavy precipitations  Wind > 20 kt
SIGMETs :     Misc.  Thunderstorms  Icing  Turbulence  Mountain Waves  Volcanic Ashes






- Airport Elevation : 359 ft
- IATA code : BVA


LFOB - Beauvais

CURRENT METAR :
  • 271000Z AUTO VRB03KT 4400 BR OVC003 05/05 Q1014 TEMPO 1200 DZ

EXPIRED METARs :
  • 270930Z AUTO 24004KT 210V270 5000 BR OVC003 04/04 Q1014 TEMPO 1200 DZ
  • 270900Z AUTO 25006KT 3500 BR OVC003 04/04 Q1014 TEMPO 1200 DZ
  • 270830Z AUTO 23005KT 5000 BR OVC003 04/03 Q1013 TEMPO 1200 DZ
  • 270800Z AUTO 23006KT 210V270 4900 BR OVC003 03/03 Q1013 TEMPO 1200 DZ
  • 270730Z AUTO 23007KT 6000 OVC003 03/03 Q1013 TEMPO 1200 DZ

TAF TAF LFOB
Valid from the 27 at 06:00 until the 28 at 06:00 UTC


270500Z 2706/2806 22008KT 5000 BR OVC006
TEMPO 2706/2719 1200 DZ OVC002
TEMPO 2719/2806 1200 RA OVC002
ATIS : +33 3 44 11 49 28



MET'MAP, your aeronautical weather chart ! - Copyright ORBIFLY December 2007 - Disclaimer

ORBIFLY MET'MAP TEAM :

Programming & Development : Alexandra Zaïnal
Concept & original design : Baudouin d'Aumeries
Assistance for programming : Marc-Olivier Méhu
Technical & hardware support : Manuel Goepfert

Contact : metmap@orbifly.com




SOURCES & CREDITS :

   NOAA